Time;durP1;ratioP1;P1;durP2;ratioP2;P2;SDS_P1;SDS_P2;PMS_P1;PMS_P2;Temp;Humidity;BMP_temperature;BMP_pressure;BME280_temperature;BME280_humidity;BME280_pressure;Samples;Min_cycle;Max_cycle;Signal;HPM_P1;HPM_P2
2021/12/15 00:02:19;;;;;;;36.70;24.73;;;9.30;99.90;;;;;;5055643;28;20229;-78
2021/12/15 00:04:50;;;;;;;39.10;25.40;;;9.30;99.90;;;;;;5035543;28;20187;-78
2021/12/15 00:07:18;;;;;;;39.67;25.13;;;9.30;99.90;;;;;;5057468;28;20199;-78
2021/12/15 00:09:46;;;;;;;38.10;25.77;;;9.30;99.90;;;;;;5026371;28;20206;-78
2021/12/15 00:12:28;;;;;;;39.83;25.03;;;9.30;99.90;;;;;;5027094;28;20194;-78
2021/12/15 00:14:55;;;;;;;36.33;23.93;;;9.30;99.90;;;;;;5035272;28;20199;-78
2021/12/15 00:17:23;;;;;;;36.37;23.50;;;9.40;99.90;;;;;;5037813;28;20195;-78
2021/12/15 00:19:51;;;;;;;36.23;25.17;;;9.40;99.90;;;;;;5044957;28;20199;-78
2021/12/15 00:22:19;;;;;;;37.40;24.43;;;9.40;99.90;;;;;;5041386;28;20546;-78
2021/12/15 00:24:46;;;;;;;38.60;25.43;;;9.40;99.90;;;;;;5029408;28;20220;-78
2021/12/15 00:27:15;;;;;;;35.63;24.90;;;9.40;99.90;;;;;;5030313;28;20211;-78
2021/12/15 00:29:44;;;;;;;36.20;23.17;;;9.40;99.90;;;;;;5034387;28;20530;-78
2021/12/15 00:32:12;;;;;;;36.40;23.27;;;9.40;99.90;;;;;;5048110;28;20645;-78
2021/12/15 00:34:41;;;;;;;32.50;22.37;;;9.40;99.90;;;;;;5048191;28;20214;-78
2021/12/15 00:37:10;;;;;;;31.33;21.23;;;9.40;99.90;;;;;;5030395;28;20199;-78
2021/12/15 00:39:37;;;;;;;29.93;21.73;;;9.40;99.90;;;;;;5038258;28;20195;-78
2021/12/15 00:42:05;;;;;;;32.37;21.40;;;9.40;99.90;;;;;;5044090;28;20230;-77
2021/12/15 00:44:33;;;;;;;30.70;20.77;;;9.40;99.90;;;;;;5049900;28;20195;-76
2021/12/15 00:47:03;;;;;;;32.13;20.67;;;9.40;99.90;;;;;;5024565;28;20183;-76
2021/12/15 00:49:31;;;;;;;27.40;20.73;;;9.40;99.90;;;;;;5033653;28;20191;-76
2021/12/15 00:51:59;;;;;;;29.67;19.00;;;9.40;99.90;;;;;;5034582;28;20219;-77
2021/12/15 00:54:26;;;;;;;27.07;19.27;;;9.40;99.90;;;;;;5037853;28;20205;-76
2021/12/15 00:56:56;;;;;;;28.90;19.70;;;9.30;99.90;;;;;;5052350;28;20198;-76
2021/12/15 00:59:24;;;;;;;27.10;19.07;;;9.40;99.90;;;;;;5032655;28;20203;-76
2021/12/15 01:01:53;;;;;;;29.00;19.50;;;9.30;99.90;;;;;;5040534;28;20221;-76
2021/12/15 01:04:22;;;;;;;27.13;18.80;;;9.30;99.90;;;;;;5049480;28;20286;-76
2021/12/15 01:06:54;;;;;;;25.80;19.03;;;9.30;99.90;;;;;;5028014;28;20198;-76
2021/12/15 01:10:00;;;;;;;26.47;19.30;;;9.40;99.90;;;;;;5022446;28;20202;-76
2021/12/15 01:12:47;;;;;;;24.13;17.53;;;9.30;99.90;;;;;;5042283;28;20278;-76
2021/12/15 01:20:52;;;;;;;26.93;18.60;;;9.30;99.90;;;;;;5030964;28;20214;-77
2021/12/15 01:23:25;;;;;;;25.03;18.67;;;9.30;99.90;;;;;;5031955;28;20576;-76
2021/12/15 01:25:55;;;;;;;23.87;17.87;;;9.30;99.90;;;;;;5031838;28;20203;-76
2021/12/15 01:28:24;;;;;;;25.47;18.27;;;9.30;99.90;;;;;;5029591;28;20199;-76
2021/12/15 01:30:53;;;;;;;23.83;17.80;;;9.30;99.90;;;;;;5047458;28;20223;-76
2021/12/15 01:33:22;;;;;;;23.77;18.40;;;9.30;99.90;;;;;;5022843;28;20188;-76
2021/12/15 01:35:53;;;;;;;23.90;17.17;;;9.30;99.90;;;;;;5031327;28;20191;-76
2021/12/15 01:38:23;;;;;;;22.83;16.93;;;9.40;99.90;;;;;;5042706;28;20199;-76
2021/12/15 01:40:52;;;;;;;23.40;17.10;;;9.40;99.90;;;;;;5014696;28;20575;-76
2021/12/15 01:43:31;;;;;;;20.83;16.40;;;9.40;99.90;;;;;;5041850;28;20214;-77
2021/12/15 01:48:57;;;;;;;22.43;15.83;;;9.40;99.90;;;;;;5014313;28;20187;-76
2021/12/15 01:51:26;;;;;;;22.10;15.37;;;9.40;99.90;;;;;;5025651;28;20222;-76
2021/12/15 01:53:55;;;;;;;20.50;15.37;;;9.40;99.90;;;;;;5026012;28;20195;-76
2021/12/15 01:56:23;;;;;;;21.47;15.93;;;9.40;99.90;;;;;;5028399;28;20204;-76
2021/12/15 01:58:51;;;;;;;21.27;16.10;;;9.40;99.90;;;;;;5024734;28;20210;-76
2021/12/15 02:01:19;;;;;;;22.67;15.60;;;9.40;99.90;;;;;;5041549;28;20719;-76
2021/12/15 02:03:47;;;;;;;23.17;15.73;;;9.40;99.90;;;;;;5044236;28;20218;-76
2021/12/15 02:06:15;;;;;;;20.77;15.73;;;9.40;99.90;;;;;;5029012;28;20213;-76
2021/12/15 02:08:44;;;;;;;19.37;15.57;;;9.40;99.90;;;;;;5028892;28;20195;-76
2021/12/15 02:11:12;;;;;;;23.63;17.37;;;9.40;99.90;;;;;;5029173;28;20214;-76
2021/12/15 02:13:40;;;;;;;22.07;16.90;;;9.40;99.90;;;;;;5040947;28;20198;-76
2021/12/15 02:16:34;;;;;;;22.03;15.93;;;9.40;99.90;;;;;;5034637;28;20186;-76
2021/12/15 02:19:02;;;;;;;21.97;16.07;;;9.40;99.90;;;;;;5039157;28;20198;-76
2021/12/15 02:21:31;;;;;;;23.53;16.73;;;9.30;99.90;;;;;;5015983;28;20219;-76
2021/12/15 02:24:00;;;;;;;24.30;17.20;;;9.30;99.90;;;;;;5020033;28;20207;-76
2021/12/15 02:26:31;;;;;;;22.73;16.80;;;9.30;99.90;;;;;;5018081;28;20205;-76
2021/12/15 02:29:01;;;;;;;20.67;15.97;;;9.30;99.90;;;;;;5029718;28;20199;-76
2021/12/15 02:31:40;;;;;;;23.90;17.00;;;9.30;99.90;;;;;;5024810;28;20223;-76
2021/12/15 02:34:31;;;;;;;26.07;16.50;;;9.30;99.90;;;;;;5038997;28;20214;-76
2021/12/15 02:37:17;;;;;;;23.20;17.40;;;9.30;99.90;;;;;;5025354;28;20202;-76
2021/12/15 02:39:47;;;;;;;27.77;18.80;;;9.20;99.90;;;;;;5025504;28;20199;-76
2021/12/15 02:42:15;;;;;;;24.83;17.57;;;9.20;99.90;;;;;;5028628;28;20203;-76
2021/12/15 02:44:45;;;;;;;25.70;18.30;;;9.20;99.90;;;;;;5027812;28;20226;-76
2021/12/15 02:47:13;;;;;;;26.47;18.93;;;9.20;99.90;;;;;;5021918;28;20214;-76
2021/12/15 02:49:41;;;;;;;27.50;19.03;;;9.20;99.90;;;;;;5030438;28;20206;-77
2021/12/15 02:52:11;;;;;;;23.20;17.97;;;9.20;99.90;;;;;;5032275;28;20203;-78
2021/12/15 02:54:38;;;;;;;28.87;18.93;;;9.10;99.90;;;;;;5045031;28;20214;-78
2021/12/15 02:57:10;;;;;;;30.03;20.30;;;9.10;99.90;;;;;;5046710;28;20203;-77
2021/12/15 02:59:50;;;;;;;27.63;18.93;;;9.10;99.90;;;;;;5021735;28;20202;-76
2021/12/15 03:02:41;;;;;;;27.20;19.33;;;9.10;99.90;;;;;;5024616;28;20205;-76
2021/12/15 03:05:13;;;;;;;29.57;19.40;;;9.10;99.90;;;;;;5025573;28;20214;-76
2021/12/15 03:07:48;;;;;;;28.83;19.73;;;9.20;99.90;;;;;;5052420;28;20214;-76
2021/12/15 03:15:49;;;;;;;29.50;19.10;;;9.20;99.90;;;;;;5024687;28;20191;-76
2021/12/15 03:18:20;;;;;;;30.60;20.33;;;9.20;99.90;;;;;;5043797;28;20559;-76
2021/12/15 03:20:53;;;;;;;28.30;18.33;;;9.10;99.90;;;;;;5028524;28;20215;-76
2021/12/15 03:23:26;;;;;;;30.63;20.50;;;9.10;99.90;;;;;;5035180;28;20681;-76
2021/12/15 03:25:55;;;;;;;32.27;19.60;;;9.10;99.90;;;;;;5022888;28;20227;-76
2021/12/15 03:34:10;;;;;;;27.63;18.23;;;9.10;99.90;;;;;;5029895;28;20671;-77
2021/12/15 03:37:06;;;;;;;28.27;19.53;;;9.10;99.90;;;;;;5025916;28;20199;-77
2021/12/15 03:39:39;;;;;;;32.23;20.17;;;9.10;99.90;;;;;;5031010;28;20563;-76
2021/12/15 03:42:09;;;;;;;28.70;20.47;;;9.10;99.90;;;;;;5041427;28;20215;-76
2021/12/15 03:44:40;;;;;;;25.37;18.13;;;9.10;99.90;;;;;;5034747;28;20218;-76
2021/12/15 03:47:10;;;;;;;30.87;21.27;;;9.00;99.90;;;;;;5031318;28;20230;-76
2021/12/15 03:49:37;;;;;;;29.33;19.07;;;9.00;99.90;;;;;;5042420;28;20199;-76
2021/12/15 03:52:06;;;;;;;28.80;20.00;;;9.00;99.90;;;;;;5044777;28;20223;-76
2021/12/15 03:54:35;;;;;;;26.53;18.87;;;9.10;99.90;;;;;;5042673;28;20246;-76
2021/12/15 03:57:02;;;;;;;30.80;20.17;;;9.10;99.90;;;;;;5023965;28;20540;-76
2021/12/15 03:59:33;;;;;;;28.03;18.83;;;9.10;99.90;;;;;;5038420;28;20199;-76
2021/12/15 04:02:01;;;;;;;29.47;19.90;;;9.10;99.90;;;;;;5033104;28;20207;-76
2021/12/15 04:04:28;;;;;;;28.63;19.53;;;9.10;99.90;;;;;;5049424;28;20207;-76
2021/12/15 04:06:56;;;;;;;28.07;19.10;;;9.10;99.90;;;;;;5033792;28;20203;-76
2021/12/15 04:09:23;;;;;;;29.53;19.87;;;9.10;99.90;;;;;;5025863;28;20688;-76
2021/12/15 04:11:54;;;;;;;30.23;20.23;;;9.10;99.90;;;;;;5031007;28;20227;-76
2021/12/15 04:14:43;;;;;;;30.67;21.33;;;9.10;99.90;;;;;;5032438;28;20187;-76
2021/12/15 04:17:30;;;;;;;31.77;20.63;;;9.10;99.90;;;;;;5029448;28;20269;-77
2021/12/15 04:20:01;;;;;;;31.33;21.40;;;9.10;99.90;;;;;;5031900;28;20195;-77
2021/12/15 04:22:28;;;;;;;31.10;20.57;;;9.10;99.90;;;;;;5036272;28;20207;-77
2021/12/15 04:24:58;;;;;;;27.33;18.87;;;9.00;99.90;;;;;;5046404;28;20574;-77
2021/12/15 04:27:27;;;;;;;28.73;19.53;;;9.00;99.90;;;;;;5050903;28;20214;-76
2021/12/15 04:29:54;;;;;;;31.97;20.73;;;9.00;99.90;;;;;;5023339;28;20195;-77
2021/12/15 04:32:28;;;;;;;33.33;21.30;;;9.00;99.90;;;;;;5042757;28;20203;-77
2021/12/15 04:34:55;;;;;;;30.30;20.60;;;9.00;99.90;;;;;;5028716;28;20646;-77
2021/12/15 04:37:23;;;;;;;31.03;20.53;;;9.00;99.90;;;;;;5023752;28;20716;-77
2021/12/15 04:39:51;;;;;;;34.30;21.53;;;9.00;99.90;;;;;;5029008;28;20198;-76
2021/12/15 04:42:20;;;;;;;32.77;21.43;;;8.90;99.90;;;;;;5047362;28;20199;-77
2021/12/15 04:44:51;;;;;;;32.00;18.70;;;8.90;99.90;;;;;;5046942;28;20708;-77
2021/12/15 04:47:26;;;;;;;33.53;22.37;;;8.90;99.90;;;;;;5044356;28;20203;-77
2021/12/15 04:49:56;;;;;;;33.00;21.83;;;8.90;99.90;;;;;;5026333;28;20672;-77
2021/12/15 04:52:27;;;;;;;35.30;22.43;;;8.90;99.90;;;;;;5031177;28;20195;-76
2021/12/15 04:54:56;;;;;;;31.90;21.77;;;8.90;99.90;;;;;;5031749;28;20182;-77
2021/12/15 04:57:25;;;;;;;36.37;22.80;;;8.90;99.90;;;;;;5044528;28;20207;-77
2021/12/15 04:59:54;;;;;;;42.77;23.87;;;8.90;99.90;;;;;;5042768;28;20533;-77
2021/12/15 05:02:23;;;;;;;37.20;22.10;;;9.00;99.90;;;;;;5044736;28;20194;-77
2021/12/15 05:04:51;;;;;;;35.97;22.40;;;9.00;99.90;;;;;;5048839;28;20238;-77
2021/12/15 05:07:19;;;;;;;35.07;22.37;;;9.00;99.90;;;;;;5028404;28;20203;-77
2021/12/15 05:09:50;;;;;;;35.23;22.37;;;8.90;99.90;;;;;;5031776;28;20206;-77
2021/12/15 05:12:18;;;;;;;36.73;22.50;;;9.00;99.90;;;;;;5031897;28;20205;-77
2021/12/15 05:14:46;;;;;;;32.17;21.43;;;9.00;99.90;;;;;;5046713;28;20199;-76
2021/12/15 05:17:15;;;;;;;31.57;20.93;;;9.00;99.90;;;;;;5043239;28;20200;-76
2021/12/15 05:19:43;;;;;;;34.47;22.40;;;9.00;99.90;;;;;;5049171;28;20195;-77
2021/12/15 05:22:11;;;;;;;31.47;20.80;;;9.00;99.90;;;;;;5046572;28;20202;-77
2021/12/15 05:24:38;;;;;;;32.37;20.67;;;9.00;99.90;;;;;;5055265;28;20302;-77
2021/12/15 05:27:09;;;;;;;34.57;22.23;;;9.00;99.90;;;;;;5032768;28;20183;-77
2021/12/15 05:29:37;;;;;;;36.47;23.30;;;9.00;99.90;;;;;;5032220;28;20214;-77
2021/12/15 05:32:05;;;;;;;31.77;22.70;;;9.00;99.90;;;;;;5047646;28;20230;-77
2021/12/15 05:34:34;;;;;;;35.60;22.80;;;9.00;99.90;;;;;;5041118;28;20581;-77
2021/12/15 05:37:16;;;;;;;33.90;23.00;;;9.00;99.90;;;;;;5051520;28;20199;-77
2021/12/15 05:39:44;;;;;;;29.90;19.93;;;9.00;99.90;;;;;;5047022;28;20198;-77
2021/12/15 05:42:12;;;;;;;30.50;20.90;;;9.00;99.90;;;;;;5044127;28;20218;-77
2021/12/15 05:44:40;;;;;;;30.83;20.17;;;9.00;99.90;;;;;;5029345;28;20218;-77
2021/12/15 05:47:08;;;;;;;30.03;20.50;;;9.10;99.90;;;;;;5043599;28;20206;-77
2021/12/15 05:49:37;;;;;;;30.27;19.47;;;9.00;99.90;;;;;;5023594;28;20200;-76
2021/12/15 05:55:53;;;;;;;30.67;19.00;;;9.00;99.90;;;;;;5032479;28;20170;-76
2021/12/15 05:58:21;;;;;;;27.07;19.77;;;9.00;99.90;;;;;;5039894;28;20219;-76
2021/12/15 06:00:49;;;;;;;30.83;21.00;;;9.00;99.90;;;;;;5024217;28;20218;-76
2021/12/15 06:03:17;;;;;;;35.27;20.73;;;9.00;99.90;;;;;;5043333;28;20194;-76
2021/12/15 06:05:46;;;;;;;27.90;20.17;;;9.10;99.90;;;;;;5044528;28;20215;-77
2021/12/15 06:08:14;;;;;;;32.47;20.47;;;9.10;99.90;;;;;;5025458;28;20195;-76
2021/12/15 06:10:42;;;;;;;34.53;20.60;;;9.10;99.90;;;;;;5028804;28;20223;-76
2021/12/15 06:13:13;;;;;;;27.50;19.33;;;9.10;99.90;;;;;;5047516;28;20199;-75
2021/12/15 06:15:45;;;;;;;31.07;20.50;;;9.10;99.90;;;;;;5029051;28;20202;-76
2021/12/15 06:18:29;;;;;;;29.87;20.17;;;9.10;99.90;;;;;;5037503;28;20541;-75
2021/12/15 06:20:58;;;;;;;28.63;20.13;;;9.10;99.90;;;;;;5036149;28;20222;-75
2021/12/15 06:23:28;;;;;;;32.60;22.03;;;9.10;99.90;;;;;;5048449;28;20197;-75
2021/12/15 06:25:58;;;;;;;27.37;19.00;;;9.00;99.90;;;;;;5033237;28;20553;-75
2021/12/15 06:28:52;;;;;;;29.70;19.43;;;9.10;99.90;;;;;;5034918;28;20195;-75
2021/12/15 06:31:22;;;;;;;25.37;18.43;;;9.10;99.90;;;;;;5023122;28;20230;-75
2021/12/15 06:33:49;;;;;;;26.13;17.90;;;9.10;99.90;;;;;;5028606;28;20199;-76
2021/12/15 06:36:20;;;;;;;25.33;17.27;;;9.10;99.90;;;;;;5046320;28;20199;-76
2021/12/15 06:39:19;;;;;;;24.00;18.83;;;9.20;99.90;;;;;;5031436;28;20195;-76
2021/12/15 06:41:58;;;;;;;25.47;18.63;;;9.20;99.90;;;;;;5016740;28;20215;-76
2021/12/15 06:44:41;;;;;;;26.27;17.73;;;9.20;99.90;;;;;;5025644;28;20191;-76
2021/12/15 06:57:14;;;;;;;26.90;17.77;;;9.10;99.90;;;;;;5020384;28;20194;-76
2021/12/15 06:59:02;;;;;;;24.50;17.93;;;9.10;99.90;;;;;;5020804;28;20202;-76
2021/12/15 07:01:29;;;;;;;25.63;18.00;;;9.20;99.90;;;;;;5026352;28;20697;-76
2021/12/15 07:03:57;;;;;;;27.37;18.87;;;9.20;99.90;;;;;;5038348;28;20214;-76
2021/12/15 07:06:24;;;;;;;24.83;18.20;;;9.20;99.90;;;;;;5028171;28;20215;-76
2021/12/15 07:08:53;;;;;;;25.40;17.73;;;9.20;99.90;;;;;;5022389;28;20214;-76
2021/12/15 07:11:39;;;;;;;26.60;18.90;;;9.20;99.90;;;;;;5050130;28;20219;-76
2021/12/15 07:14:07;;;;;;;27.30;18.63;;;9.10;99.90;;;;;;5038967;28;20202;-76
2021/12/15 07:16:38;;;;;;;25.33;18.80;;;9.10;99.90;;;;;;5038761;28;20211;-75
2021/12/15 07:19:09;;;;;;;29.07;19.20;;;9.20;99.90;;;;;;5049191;28;20195;-75
2021/12/15 07:21:53;;;;;;;29.63;20.03;;;9.10;99.90;;;;;;5037316;28;20222;-75
2021/12/15 07:24:23;;;;;;;27.93;18.77;;;9.10;99.90;;;;;;5028891;28;20222;-75
2021/12/15 07:26:50;;;;;;;25.30;17.70;;;9.10;99.90;;;;;;5033233;28;20691;-75
2021/12/15 07:29:18;;;;;;;24.50;17.70;;;9.10;99.90;;;;;;5047717;28;20218;-75
2021/12/15 07:31:46;;;;;;;26.43;18.17;;;9.20;99.90;;;;;;5023068;28;20223;-75
2021/12/15 07:34:14;;;;;;;27.37;19.47;;;9.20;99.90;;;;;;5026316;28;20210;-75
2021/12/15 07:36:41;;;;;;;27.93;17.57;;;9.20;99.90;;;;;;5029984;28;20195;-74
2021/12/15 07:39:15;;;;;;;28.20;18.77;;;9.20;99.90;;;;;;5027346;28;20290;-74
2021/12/15 07:41:51;;;;;;;28.17;19.03;;;9.20;99.90;;;;;;5042725;28;20224;-75
2021/12/15 07:44:20;;;;;;;27.00;17.10;;;9.20;99.90;;;;;;5021610;28;20214;-75
2021/12/15 07:46:49;;;;;;;25.87;17.70;;;9.30;99.90;;;;;;5048100;28;20298;-75
2021/12/15 07:49:18;;;;;;;23.63;17.17;;;9.30;99.90;;;;;;5027072;28;20214;-75
2021/12/15 07:51:52;;;;;;;24.53;17.40;;;9.20;99.90;;;;;;5030401;28;20700;-75
2021/12/15 07:54:20;;;;;;;22.53;16.77;;;9.30;99.90;;;;;;5021263;28;20211;-75
2021/12/15 07:56:49;;;;;;;23.03;16.77;;;9.30;99.90;;;;;;5026873;28;20210;-75
2021/12/15 07:59:16;;;;;;;25.37;17.60;;;9.30;99.90;;;;;;5047392;28;20203;-74
2021/12/15 08:01:44;;;;;;;23.63;15.33;;;9.30;99.90;;;;;;5022440;28;20236;-75
2021/12/15 08:04:12;;;;;;;20.43;15.87;;;9.30;99.90;;;;;;5049588;28;20210;-75
2021/12/15 08:06:39;;;;;;;23.23;16.73;;;9.30;99.90;;;;;;5030410;28;20562;-74
2021/12/15 08:09:07;;;;;;;22.57;15.57;;;9.30;99.90;;;;;;5041561;28;20207;-75
2021/12/15 08:11:35;;;;;;;24.87;16.53;;;9.30;99.90;;;;;;5027945;28;20219;-75
2021/12/15 08:14:05;;;;;;;26.50;16.67;;;9.30;99.90;;;;;;5034293;28;20977;-75
2021/12/15 08:16:33;;;;;;;25.07;16.93;;;9.30;99.90;;;;;;5020407;28;20196;-74
2021/12/15 08:19:01;;;;;;;21.83;16.33;;;9.30;99.90;;;;;;5028120;28;20194;-75
2021/12/15 08:21:29;;;;;;;21.87;15.77;;;9.30;99.90;;;;;;5021400;28;20581;-74
2021/12/15 08:23:57;;;;;;;22.63;16.13;;;9.30;99.90;;;;;;5044265;28;20191;-75
2021/12/15 08:26:26;;;;;;;23.20;16.53;;;9.30;99.90;;;;;;5036403;28;20230;-75
2021/12/15 08:28:53;;;;;;;22.33;15.83;;;9.30;99.90;;;;;;5023035;28;20669;-75
2021/12/15 08:31:22;;;;;;;23.10;15.63;;;9.30;99.90;;;;;;5044351;28;20222;-75
2021/12/15 08:33:50;;;;;;;25.47;16.63;;;9.30;99.90;;;;;;5048186;28;20195;-75
2021/12/15 08:36:17;;;;;;;26.30;18.33;;;9.30;99.90;;;;;;5045439;28;20203;-75
2021/12/15 08:38:48;;;;;;;23.47;17.10;;;9.30;99.90;;;;;;5029569;28;20222;-75
2021/12/15 08:41:18;;;;;;;27.00;18.37;;;9.30;99.90;;;;;;5046118;28;20245;-75
2021/12/15 08:43:46;;;;;;;27.70;17.73;;;9.30;99.90;;;;;;5020174;28;20218;-75
2021/12/15 08:46:17;;;;;;;25.07;17.43;;;9.30;99.90;;;;;;5039109;28;20222;-74
2021/12/15 08:49:07;;;;;;;24.30;16.93;;;9.30;99.90;;;;;;5045924;28;20645;-75
2021/12/15 08:51:36;;;;;;;25.13;17.20;;;9.30;99.90;;;;;;5046459;28;20219;-75
2021/12/15 08:54:06;;;;;;;26.60;17.40;;;9.30;99.90;;;;;;5024192;28;20199;-75
2021/12/15 08:56:34;;;;;;;28.23;20.77;;;9.30;99.90;;;;;;5031978;28;20200;-75
2021/12/15 08:59:02;;;;;;;29.60;19.87;;;9.30;99.90;;;;;;5024586;28;20207;-75
2021/12/15 09:01:29;;;;;;;27.10;18.77;;;9.20;99.90;;;;;;5025279;28;20242;-75
2021/12/15 09:03:57;;;;;;;30.00;20.27;;;9.30;99.90;;;;;;5029101;28;20191;-75
2021/12/15 09:06:26;;;;;;;28.70;19.80;;;9.30;99.90;;;;;;5029627;28;20214;-75
2021/12/15 09:08:54;;;;;;;29.47;20.07;;;9.30;99.90;;;;;;5011376;28;20199;-75
2021/12/15 09:11:24;;;;;;;34.13;20.83;;;9.20;99.90;;;;;;5011455;28;20244;-75
2021/12/15 09:14:27;;;;;;;29.63;20.43;;;9.30;99.90;;;;;;5027870;28;20195;-75
2021/12/15 09:16:58;;;;;;;29.60;19.40;;;9.20;99.90;;;;;;5042983;28;20194;-75
2021/12/15 09:19:26;;;;;;;29.90;19.53;;;9.30;99.90;;;;;;5030930;28;20191;-75
2021/12/15 09:21:55;;;;;;;30.80;19.80;;;9.30;99.90;;;;;;5029265;28;20218;-75
2021/12/15 09:24:24;;;;;;;32.33;20.57;;;9.30;99.90;;;;;;5043373;28;20199;-75
2021/12/15 09:26:52;;;;;;;30.10;20.40;;;9.30;99.90;;;;;;5031544;28;20684;-75
2021/12/15 09:29:19;;;;;;;32.00;20.33;;;9.30;99.90;;;;;;5030622;28;20548;-75
2021/12/15 09:31:47;;;;;;;31.80;20.00;;;9.30;99.90;;;;;;5030542;28;20226;-76
2021/12/15 09:34:18;;;;;;;33.47;21.33;;;9.30;99.90;;;;;;5031323;28;20661;-75
2021/12/15 09:36:47;;;;;;;31.70;21.90;;;9.30;99.90;;;;;;5034773;28;20548;-75
2021/12/15 09:39:19;;;;;;;33.13;22.13;;;9.20;99.90;;;;;;5047245;28;20210;-76
2021/12/15 09:41:48;;;;;;;33.23;23.10;;;9.20;99.90;;;;;;5030624;28;20215;-75
2021/12/15 09:44:20;;;;;;;31.10;22.50;;;9.30;99.90;;;;;;5046785;28;20206;-75
2021/12/15 10:03:55;;;;;;;33.17;21.30;;;9.40;99.90;;;;;;5027597;28;20234;-75
2021/12/15 10:06:44;;;;;;;30.40;20.57;;;9.40;99.90;;;;;;5047625;28;20221;-75
2021/12/15 10:12:31;;;;;;;29.57;21.13;;;9.40;99.90;;;;;;5040288;28;20211;-75
2021/12/15 10:17:59;;;;;;;29.37;20.20;;;9.40;99.90;;;;;;5047951;28;20195;-75
2021/12/15 10:20:28;;;;;;;31.13;20.87;;;9.40;99.90;;;;;;5049780;28;20228;-75
2021/12/15 10:23:00;;;;;;;29.57;20.77;;;9.40;99.90;;;;;;5038557;28;20657;-75
2021/12/15 10:25:30;;;;;;;30.30;21.13;;;9.40;99.90;;;;;;5034677;28;20186;-75
2021/12/15 10:28:04;;;;;;;31.67;21.03;;;9.40;99.90;;;;;;5039609;28;20203;-75
2021/12/15 10:30:35;;;;;;;32.37;21.53;;;9.50;99.90;;;;;;5032737;28;20574;-75
2021/12/15 10:33:05;;;;;;;34.60;22.60;;;9.40;99.90;;;;;;5052210;28;20205;-75
2021/12/15 10:35:35;;;;;;;31.80;21.27;;;9.40;99.90;;;;;;5045668;28;20194;-75
2021/12/15 10:38:20;;;;;;;31.83;23.23;;;9.40;99.90;;;;;;5042793;28;20543;-76
2021/12/15 10:40:54;;;;;;;35.33;22.07;;;9.40;99.90;;;;;;5031034;28;20214;-75
2021/12/15 10:43:27;;;;;;;33.03;22.00;;;9.40;99.90;;;;;;5028892;28;20206;-75
2021/12/15 10:45:57;;;;;;;34.53;22.40;;;9.40;99.90;;;;;;5029093;28;20190;-75
2021/12/15 10:48:44;;;;;;;36.70;24.40;;;9.40;99.90;;;;;;5043164;28;20226;-74
2021/12/15 10:51:29;;;;;;;33.97;21.00;;;9.40;99.90;;;;;;5033165;28;20584;-74
2021/12/15 10:53:59;;;;;;;36.23;23.40;;;9.40;99.90;;;;;;5025987;28;20259;-74
2021/12/15 10:56:29;;;;;;;34.13;23.37;;;9.40;99.90;;;;;;5032084;28;20187;-74
2021/12/15 10:59:01;;;;;;;31.20;21.33;;;9.40;99.90;;;;;;5032680;28;20191;-74
2021/12/15 11:01:46;;;;;;;35.33;23.30;;;9.40;99.90;;;;;;5056207;28;20572;-75
2021/12/15 11:04:47;;;;;;;34.50;22.30;;;9.50;99.90;;;;;;5047275;28;20589;-75
2021/12/15 11:07:29;;;;;;;37.03;23.47;;;9.50;99.90;;;;;;5045217;28;20213;-74
2021/12/15 11:10:01;;;;;;;36.97;24.27;;;9.50;99.90;;;;;;5047687;28;20225;-74
2021/12/15 11:12:32;;;;;;;38.63;24.37;;;9.40;99.90;;;;;;5048870;28;20207;-75
2021/12/15 11:15:04;;;;;;;35.80;23.90;;;9.40;99.90;;;;;;5042394;28;20218;-74
2021/12/15 11:17:34;;;;;;;34.97;23.20;;;9.50;99.90;;;;;;5032503;28;20191;-74
2021/12/15 11:20:08;;;;;;;40.03;24.80;;;9.50;99.90;;;;;;5047377;28;20316;-74
2021/12/15 11:22:57;;;;;;;34.23;22.80;;;9.50;99.90;;;;;;5034186;28;20187;-74
2021/12/15 11:25:32;;;;;;;38.23;23.33;;;9.50;99.90;;;;;;5029754;28;20225;-75
2021/12/15 11:28:05;;;;;;;37.90;23.80;;;9.50;99.90;;;;;;5041788;28;20214;-75
2021/12/15 11:30:50;;;;;;;41.17;24.67;;;9.50;99.90;;;;;;5045248;28;20580;-75
2021/12/15 11:33:20;;;;;;;39.67;25.30;;;9.50;99.90;;;;;;5037949;28;20571;-76
2021/12/15 11:36:05;;;;;;;39.03;25.23;;;9.50;99.90;;;;;;5025739;28;20209;-76
2021/12/15 11:39:04;;;;;;;40.53;24.80;;;9.50;99.90;;;;;;5043997;28;20191;-76
2021/12/15 11:41:33;;;;;;;39.20;25.00;;;9.50;99.90;;;;;;5030367;28;20759;-75
2021/12/15 11:48:14;;;;;;;38.90;24.90;;;9.60;99.90;;;;;;5032320;28;20198;-76
2021/12/15 11:50:43;;;;;;;40.93;23.03;;;9.50;99.90;;;;;;5030046;28;20215;-75
2021/12/15 11:53:35;;;;;;;37.93;24.03;;;9.50;99.90;;;;;;5031347;28;20557;-75
2021/12/15 11:56:25;;;;;;;36.13;22.80;;;9.60;99.90;;;;;;5032606;28;20195;-75
2021/12/15 11:59:15;;;;;;;36.93;24.27;;;9.60;99.90;;;;;;5023094;28;20203;-75
2021/12/15 12:01:53;;;;;;;37.53;24.83;;;9.50;99.90;;;;;;5037009;28;20219;-75
2021/12/15 12:04:26;;;;;;;37.30;22.53;;;9.50;99.90;;;;;;5053136;28;20207;-75
2021/12/15 12:07:09;;;;;;;36.07;24.27;;;9.60;99.90;;;;;;5029583;28;20202;-75
2021/12/15 12:10:02;;;;;;;35.93;22.60;;;9.60;99.90;;;;;;5030799;28;20200;-75
2021/12/15 12:12:36;;;;;;;35.90;23.40;;;9.50;99.90;;;;;;5028618;28;20597;-75
2021/12/15 12:15:06;;;;;;;34.73;23.53;;;9.60;99.90;;;;;;5040266;28;20203;-75
2021/12/15 12:17:36;;;;;;;37.77;23.53;;;9.50;99.90;;;;;;5024626;28;20187;-75
2021/12/15 12:20:10;;;;;;;37.27;24.07;;;9.60;99.90;;;;;;5022157;28;20199;-75
2021/12/15 12:22:38;;;;;;;35.20;23.63;;;9.60;99.90;;;;;;5026328;28;20234;-75
2021/12/15 12:25:10;;;;;;;35.80;24.30;;;9.60;99.90;;;;;;5027530;28;20191;-75
2021/12/15 12:27:40;;;;;;;36.23;22.83;;;9.60;99.90;;;;;;5033419;28;20203;-75
2021/12/15 12:30:11;;;;;;;36.23;24.07;;;9.60;99.90;;;;;;5045171;28;20203;-75
2021/12/15 12:32:38;;;;;;;37.17;24.97;;;9.60;99.90;;;;;;5030858;28;20195;-75
2021/12/15 12:35:10;;;;;;;40.07;24.97;;;9.60;99.90;;;;;;5048986;28;20199;-75
2021/12/15 12:37:39;;;;;;;38.00;24.57;;;9.60;99.90;;;;;;5032749;28;20203;-75
2021/12/15 12:40:19;;;;;;;42.70;25.70;;;9.60;99.90;;;;;;5044328;28;20207;-76
2021/12/15 12:42:47;;;;;;;37.87;25.83;;;9.60;99.90;;;;;;5025539;28;20195;-75
2021/12/15 12:45:24;;;;;;;37.80;25.70;;;9.60;99.90;;;;;;5030233;28;20203;-75
2021/12/15 12:48:09;;;;;;;39.17;24.53;;;9.60;99.90;;;;;;5048938;28;20215;-75
2021/12/15 12:59:33;;;;;;;40.37;25.67;;;9.70;99.90;;;;;;5027013;28;20190;-75
2021/12/15 13:02:04;;;;;;;39.27;25.73;;;9.70;99.90;;;;;;5043298;28;20218;-76
2021/12/15 13:04:40;;;;;;;39.50;26.53;;;9.70;99.90;;;;;;5013648;28;20216;-76
2021/12/15 13:07:11;;;;;;;40.27;26.23;;;9.70;99.90;;;;;;5042642;28;20221;-76
2021/12/15 13:09:50;;;;;;;41.90;26.83;;;9.70;99.90;;;;;;5048375;28;20222;-76
2021/12/15 13:12:22;;;;;;;39.43;25.63;;;9.70;99.90;;;;;;5029527;28;20203;-76
2021/12/15 13:14:49;;;;;;;40.77;25.80;;;9.70;99.90;;;;;;5040287;28;20210;-76
2021/12/15 13:17:22;;;;;;;45.57;27.87;;;9.70;99.90;;;;;;5031147;28;20211;-75
2021/12/15 13:19:50;;;;;;;45.83;28.57;;;9.70;99.90;;;;;;5023818;28;20202;-75
2021/12/15 13:22:29;;;;;;;43.90;28.57;;;9.70;99.90;;;;;;5047545;28;20621;-79
2021/12/15 13:30:40;;;;;;;46.00;28.87;;;9.80;99.90;;;;;;5023103;28;20212;-76
2021/12/15 13:33:13;;;;;;;43.03;27.93;;;9.80;99.90;;;;;;5047933;28;20203;-78
2021/12/15 13:35:48;;;;;;;41.17;26.87;;;9.80;99.90;;;;;;5033070;28;20206;-78
2021/12/15 13:38:21;;;;;;;39.03;26.90;;;9.80;99.90;;;;;;5025447;28;20187;-77
2021/12/15 13:40:52;;;;;;;40.03;27.50;;;9.90;99.90;;;;;;5042127;28;20219;-76
2021/12/15 13:43:45;;;;;;;40.20;27.40;;;9.90;99.90;;;;;;5027575;28;20672;-76
2021/12/15 13:46:32;;;;;;;41.53;27.37;;;9.80;99.90;;;;;;5027116;28;20579;-75
2021/12/15 13:49:28;;;;;;;43.40;28.03;;;9.80;99.90;;;;;;5027216;28;20207;-76
2021/12/15 13:52:18;;;;;;;42.23;27.63;;;9.90;99.90;;;;;;5022791;28;20218;-76
2021/12/15 13:55:15;;;;;;;40.67;28.27;;;9.90;99.90;;;;;;5020739;28;20570;-76
2021/12/15 13:57:56;;;;;;;44.27;28.83;;;9.80;99.90;;;;;;5030971;28;20600;-76
2021/12/15 14:00:27;;;;;;;41.27;27.00;;;9.90;99.90;;;;;;5044650;28;20239;-75
2021/12/15 14:02:59;;;;;;;41.93;28.47;;;9.90;99.90;;;;;;5027930;28;20258;-75
2021/12/15 14:05:28;;;;;;;45.03;29.83;;;9.90;99.90;;;;;;5046345;28;20195;-75
2021/12/15 14:08:04;;;;;;;43.43;29.27;;;9.90;99.90;;;;;;5037695;28;20191;-76
2021/12/15 14:10:58;;;;;;;40.27;27.83;;;9.90;99.90;;;;;;5025951;28;20218;-75
2021/12/15 14:13:46;;;;;;;40.60;27.77;;;9.90;99.90;;;;;;5046139;28;20202;-76
2021/12/15 14:16:15;;;;;;;39.87;27.57;;;9.90;99.90;;;;;;5029850;28;20672;-76
2021/12/15 14:18:42;;;;;;;42.97;28.00;;;9.90;99.90;;;;;;5047483;28;20195;-76